Vina, California
Current Conditions -  °F | °C
As of 11:55 AM on Monday 24 Nov 2014 (Local Time) from KCIC Reporting Station
Scattered Clouds Scattered Clouds  
Wind Chill: 57°   Ceiling: Unl
Heat Index: 57°   Visibility: 10mi
Dew Point: 39°   Wind: 12mph
Humidity: 51%   Direction: 300°WNW
Pressure: 30.38"   Gusts: NA
Location:  39.93°N, 122.06°W
Report Text: KCIC 241955Z 30010KT 10SM SCT250 14/04 A3038
Loading
Personal Weather Stations






























Interactive Weather Map New forecast layout! Learn more

10-Day Weather Forecast

Advertisements
Track Severe Weather on mobile